Time;durP1;ratioP1;P1;durP2;ratioP2;P2;SDS_P1;SDS_P2;PMS_P1;PMS_P2;Temp;Humidity;BMP_temperature;BMP_pressure;BME280_temperature;BME280_humidity;BME280_pressure;Samples;Min_cycle;Max_cycle;Signal;HPM_P1;HPM_P2
2022/10/01 00:02:22;;;;;;;2.15;1.90;;;14.40;93.50;;;;;;10217219;28;20023;-66
2022/10/01 00:07:23;;;;;;;2.67;2.40;;;14.40;93.50;;;;;;10246837;28;20030;-61
2022/10/01 00:12:23;;;;;;;2.13;1.85;;;14.40;93.60;;;;;;10249654;28;20488;-62
2022/10/01 00:17:24;;;;;;;2.70;2.00;;;14.30;93.60;;;;;;10235230;28;20050;-63
2022/10/01 00:22:25;;;;;;;4.13;2.42;;;14.30;93.70;;;;;;10241106;28;20809;-62
2022/10/01 00:27:26;;;;;;;3.47;2.40;;;14.30;93.70;;;;;;10246941;28;20398;-63
2022/10/01 00:32:27;;;;;;;2.80;2.17;;;14.30;93.80;;;;;;10234846;28;20023;-62
2022/10/01 00:37:28;;;;;;;3.67;2.15;;;14.30;93.90;;;;;;10239129;28;20043;-67
2022/10/01 00:42:29;;;;;;;3.45;2.22;;;14.30;93.90;;;;;;10231186;28;20388;-63
2022/10/01 00:47:33;;;;;;;3.25;2.45;;;14.30;93.90;;;;;;10238030;28;20042;-62
2022/10/01 00:52:38;;;;;;;4.78;2.90;;;14.30;94.00;;;;;;10234054;28;20046;-64
2022/10/01 00:57:41;;;;;;;2.95;2.55;;;14.20;94.00;;;;;;10246345;28;20122;-67
2022/10/01 01:02:41;;;;;;;3.15;2.55;;;14.20;94.10;;;;;;10234636;28;21350;-68
2022/10/01 01:07:46;;;;;;;4.07;2.63;;;14.20;94.10;;;;;;10247649;28;20035;-62
2022/10/01 01:12:53;;;;;;;4.43;2.70;;;14.20;94.20;;;;;;10241877;28;20031;-68
2022/10/01 01:18:21;;;;;;;4.45;2.67;;;14.20;94.30;;;;;;10243213;28;20043;-67
2022/10/01 01:23:41;;;;;;;3.47;2.50;;;14.20;94.30;;;;;;10241117;28;20026;-62
2022/10/01 01:28:51;;;;;;;3.85;2.22;;;14.10;94.30;;;;;;10247936;28;20129;-64
2022/10/01 01:33:54;;;;;;;4.80;2.45;;;14.10;94.30;;;;;;10235775;28;20432;-63
2022/10/01 01:39:00;;;;;;;4.78;2.80;;;14.10;94.40;;;;;;10242765;28;20034;-67
2022/10/01 01:44:06;;;;;;;3.92;2.38;;;14.10;94.40;;;;;;10253130;28;20031;-64
2022/10/01 01:49:07;;;;;;;3.45;2.58;;;14.10;94.40;;;;;;10243518;28;20085;-65
2022/10/01 01:54:08;;;;;;;3.33;1.80;;;14.10;94.40;;;;;;10243917;28;20040;-65
2022/10/01 01:59:10;;;;;;;3.13;2.40;;;14.10;94.50;;;;;;10243688;28;20162;-62
2022/10/01 02:04:20;;;;;;;2.47;2.08;;;14.10;94.50;;;;;;10239810;28;20035;-68
2022/10/01 02:09:34;;;;;;;2.60;2.30;;;14.10;94.60;;;;;;10246346;28;20440;-67
2022/10/01 02:14:43;;;;;;;4.10;2.28;;;14.00;94.60;;;;;;10234429;28;20420;-68
2022/10/01 02:19:56;;;;;;;2.60;2.20;;;14.00;94.60;;;;;;10255026;28;20055;-66
2022/10/01 02:24:58;;;;;;;3.00;2.08;;;14.00;94.70;;;;;;10245603;28;20113;-67
2022/10/01 02:30:06;;;;;;;1.90;1.65;;;14.00;94.70;;;;;;10240594;28;20051;-63
2022/10/01 02:35:10;;;;;;;3.40;2.03;;;14.00;94.70;;;;;;10238431;28;20027;-62
2022/10/01 02:40:15;;;;;;;2.95;2.10;;;14.00;94.70;;;;;;10252387;28;20027;-62
2022/10/01 02:45:21;;;;;;;3.58;1.90;;;14.00;94.80;;;;;;10242752;28;20162;-62
2022/10/01 02:50:26;;;;;;;2.45;1.58;;;14.00;94.80;;;;;;10235174;28;20058;-68
2022/10/01 02:55:36;;;;;;;1.67;1.58;;;14.00;94.80;;;;;;10235593;28;20416;-64
2022/10/01 03:00:37;;;;;;;2.10;1.63;;;14.00;94.90;;;;;;10245264;28;20042;-67
2022/10/01 03:05:38;;;;;;;2.58;1.58;;;14.00;94.90;;;;;;10234359;28;20054;-63
2022/10/01 03:10:39;;;;;;;1.75;1.50;;;13.90;94.90;;;;;;10244836;28;20215;-64
2022/10/01 03:15:39;;;;;;;2.35;1.40;;;13.90;94.90;;;;;;10249464;28;20067;-68
2022/10/01 03:20:40;;;;;;;2.35;1.40;;;14.00;95.00;;;;;;10236576;28;20062;-67
2022/10/01 03:25:41;;;;;;;3.90;1.48;;;13.90;95.00;;;;;;10239109;28;20309;-62
2022/10/01 03:30:41;;;;;;;1.67;1.58;;;13.90;95.10;;;;;;10239331;28;20043;-63
2022/10/01 03:35:42;;;;;;;2.88;1.25;;;13.90;95.10;;;;;;10233975;28;20035;-63
2022/10/01 03:40:43;;;;;;;2.95;1.50;;;13.90;95.10;;;;;;10237932;28;20134;-62
2022/10/01 03:45:43;;;;;;;1.90;1.10;;;13.90;95.10;;;;;;10239793;28;20535;-67
2022/10/01 03:50:55;;;;;;;1.42;1.20;;;13.90;95.20;;;;;;10236354;28;20500;-62
2022/10/01 03:55:57;;;;;;;1.75;1.10;;;13.90;95.20;;;;;;10242825;28;20028;-64
2022/10/01 04:00:59;;;;;;;2.28;1.30;;;13.90;95.20;;;;;;10245966;28;20043;-65
2022/10/01 04:06:00;;;;;;;1.30;1.20;;;13.90;95.20;;;;;;10234786;28;20027;-66
2022/10/01 04:11:00;;;;;;;1.45;1.13;;;13.90;95.20;;;;;;10245473;28;20027;-64
2022/10/01 04:16:02;;;;;;;1.73;1.25;;;13.90;95.30;;;;;;10238287;28;20031;-62
2022/10/01 04:21:03;;;;;;;1.25;1.10;;;13.90;95.30;;;;;;10241082;28;20118;-67
2022/10/01 04:26:04;;;;;;;1.33;0.93;;;13.90;95.30;;;;;;10236637;28;20177;-61
2022/10/01 04:36:24;;;;;;;0.98;0.80;;;13.80;95.30;;;;;;10231323;28;20042;-63
2022/10/01 04:41:25;;;;;;;0.80;0.70;;;13.80;95.30;;;;;;10235371;28;20031;-61
2022/10/01 04:46:27;;;;;;;1.25;0.90;;;13.80;95.30;;;;;;10240366;28;20420;-62
2022/10/01 04:51:27;;;;;;;0.63;0.63;;;13.90;95.40;;;;;;10244776;28;20053;-62
2022/10/01 04:56:28;;;;;;;0.57;0.57;;;13.80;95.30;;;;;;10244800;28;20049;-62
2022/10/01 05:01:30;;;;;;;0.80;0.80;;;13.80;95.60;;;;;;10241539;28;20052;-62
2022/10/01 05:06:31;;;;;;;1.00;0.80;;;13.80;95.30;;;;;;10249207;28;20027;-63
2022/10/01 05:11:33;;;;;;;0.70;0.70;;;13.90;95.40;;;;;;10251974;28;20043;-63
2022/10/01 05:16:34;;;;;;;0.60;0.60;;;13.80;95.30;;;;;;10241342;28;20523;-62
2022/10/01 05:21:36;;;;;;;0.85;0.60;;;13.90;95.40;;;;;;10242911;28;20024;-63
2022/10/01 05:26:38;;;;;;;0.77;0.70;;;13.80;95.40;;;;;;10243161;28;20041;-61
2022/10/01 05:31:41;;;;;;;1.55;0.98;;;13.90;95.40;;;;;;10241269;28;20031;-62
2022/10/01 05:36:42;;;;;;;0.85;0.70;;;13.90;95.40;;;;;;10225299;28;20531;-62
2022/10/01 05:41:43;;;;;;;0.70;0.60;;;13.90;95.40;;;;;;10242318;28;20031;-62
2022/10/01 05:46:44;;;;;;;1.60;0.90;;;13.90;95.40;;;;;;10243827;28;20050;-62
2022/10/01 05:51:45;;;;;;;1.15;0.70;;;13.80;95.40;;;;;;10239944;28;20047;-62
2022/10/01 05:56:45;;;;;;;1.83;0.80;;;13.90;95.40;;;;;;10245845;28;20080;-62
2022/10/01 06:01:46;;;;;;;0.73;0.73;;;13.90;95.40;;;;;;10238905;28;20677;-61
2022/10/01 06:06:47;;;;;;;1.38;0.70;;;13.90;95.40;;;;;;10214006;28;20513;-62
2022/10/01 06:11:48;;;;;;;0.98;0.80;;;13.80;95.40;;;;;;10159791;28;20235;-61
2022/10/01 06:16:53;;;;;;;1.45;1.00;;;13.90;95.40;;;;;;10175769;28;20222;-62
2022/10/01 06:21:54;;;;;;;1.20;0.80;;;13.90;95.40;;;;;;10176421;28;20031;-62
2022/10/01 06:26:55;;;;;;;0.80;0.80;;;13.90;95.40;;;;;;10161387;28;20057;-62
2022/10/01 06:31:56;;;;;;;0.65;0.65;;;13.90;95.40;;;;;;10156509;28;20027;-63
2022/10/01 06:36:56;;;;;;;1.00;0.80;;;13.90;95.40;;;;;;10169991;28;20043;-62
2022/10/01 06:41:57;;;;;;;1.02;0.90;;;13.90;95.40;;;;;;10176109;28;20035;-63
2022/10/01 06:46:58;;;;;;;2.05;0.90;;;13.90;95.40;;;;;;10182168;23;20600;-69
2022/10/01 06:57:19;;;;;;;1.10;0.85;;;13.90;95.40;;;;;;10120912;29;20467;-67
2022/10/01 07:02:27;;;;;;;1.65;1.20;;;13.90;95.40;;;;;;10122421;29;20370;-62
2022/10/01 07:07:29;;;;;;;1.05;0.90;;;14.00;95.50;;;;;;10122450;23;20646;-62
2022/10/01 07:12:31;;;;;;;1.70;1.00;;;14.00;95.40;;;;;;10160824;28;20035;-62
2022/10/01 07:17:32;;;;;;;1.30;1.05;;;14.00;95.40;;;;;;10167582;28;20475;-68
2022/10/01 07:22:33;;;;;;;3.58;1.17;;;14.00;95.40;;;;;;10164121;28;20106;-66
2022/10/01 07:27:34;;;;;;;2.47;1.10;;;13.80;95.40;;;;;;10163769;28;20519;-64
2022/10/01 07:32:35;;;;;;;2.58;1.10;;;14.10;95.50;;;;;;10170976;28;20306;-64
2022/10/01 07:37:36;;;;;;;1.58;1.15;;;14.20;95.40;;;;;;10183157;28;20058;-65
2022/10/01 07:42:37;;;;;;;1.80;0.90;;;14.00;95.30;;;;;;10157404;28;20458;-64
2022/10/01 07:47:38;;;;;;;3.05;1.05;;;14.40;95.30;;;;;;10156615;28;20659;-65
2022/10/01 07:52:38;;;;;;;2.38;1.00;;;14.50;95.30;;;;;;10155854;28;20286;-62
2022/10/01 07:57:40;;;;;;;1.20;1.00;;;14.50;95.30;;;;;;10163489;28;20119;-70
2022/10/01 08:02:46;;;;;;;2.22;1.23;;;14.50;95.50;;;;;;10163150;28;20769;-64
2022/10/01 08:07:48;;;;;;;1.83;1.00;;;14.60;95.30;;;;;;10181204;28;20057;-64
2022/10/01 08:12:49;;;;;;;1.10;0.90;;;14.60;95.30;;;;;;10172425;28;20166;-64
2022/10/01 08:17:50;;;;;;;4.13;0.90;;;14.60;95.30;;;;;;10168023;28;20243;-63
2022/10/01 08:22:51;;;;;;;1.48;0.90;;;14.60;95.40;;;;;;10156782;28;20034;-64
2022/10/01 08:27:52;;;;;;;3.22;0.95;;;14.60;95.40;;;;;;10179447;28;20533;-64
2022/10/01 08:32:58;;;;;;;0.88;0.80;;;14.60;95.40;;;;;;10158038;28;20162;-68
2022/10/01 08:38:03;;;;;;;3.83;0.90;;;14.70;95.40;;;;;;10165092;28;20042;-65
2022/10/01 08:43:26;;;;;;;1.92;1.02;;;14.70;95.40;;;;;;10178539;28;20031;-65
2022/10/01 08:48:38;;;;;;;2.15;0.70;;;14.80;95.50;;;;;;10164750;28;20432;-63
2022/10/01 08:54:11;;;;;;;2.03;1.05;;;14.90;95.50;;;;;;10176059;28;20035;-64
2022/10/01 08:59:47;;;;;;;2.22;1.00;;;14.90;95.60;;;;;;10150285;28;20392;-71
2022/10/01 09:05:00;;;;;;;3.08;1.20;;;14.90;95.60;;;;;;10135926;28;20051;-63
2022/10/01 09:10:23;;;;;;;2.55;0.93;;;14.90;95.40;;;;;;10160421;28;20040;-65
2022/10/01 09:15:33;;;;;;;2.22;0.93;;;15.00;95.60;;;;;;10156888;28;20043;-66
2022/10/01 09:20:52;;;;;;;1.73;0.93;;;15.00;95.40;;;;;;10161974;28;20035;-64
2022/10/01 09:25:53;;;;;;;1.33;0.93;;;15.10;95.50;;;;;;10164825;28;20340;-63
2022/10/01 09:31:11;;;;;;;1.92;0.95;;;15.10;95.40;;;;;;10163208;28;20404;-70
2022/10/01 09:36:24;;;;;;;1.77;1.00;;;15.20;95.40;;;;;;10242353;23;20069;-69
2022/10/01 09:41:25;;;;;;;2.25;1.00;;;15.30;95.50;;;;;;10230885;28;20514;-68
2022/10/01 09:46:26;;;;;;;1.45;0.75;;;15.30;95.30;;;;;;10227131;28;20031;-71
2022/10/01 09:51:47;;;;;;;4.97;1.35;;;15.40;95.30;;;;;;10220438;28;20803;-68
2022/10/01 09:56:53;;;;;;;3.60;1.10;;;15.50;96.50;;;;;;10226233;28;20268;-66
2022/10/01 10:01:57;;;;;;;4.53;1.30;;;15.60;95.60;;;;;;10228436;28;20193;-66
2022/10/01 10:07:08;;;;;;;4.65;1.48;;;15.70;95.60;;;;;;10219002;28;20763;-65
2022/10/01 10:12:26;;;;;;;4.65;1.20;;;15.70;95.70;;;;;;10226719;28;20026;-67
2022/10/01 10:17:36;;;;;;;8.73;1.63;;;15.80;95.80;;;;;;10214321;28;20050;-63
2022/10/01 10:22:37;;;;;;;2.38;1.50;;;16.10;95.90;;;;;;10210326;28;20429;-62
2022/10/01 10:27:53;;;;;;;7.75;1.40;;;15.80;95.80;;;;;;10179553;28;20900;-64
2022/10/01 10:33:03;;;;;;;3.15;1.25;;;15.80;96.00;;;;;;10180731;23;20105;-68
2022/10/01 10:38:04;;;;;;;5.95;1.80;;;15.80;96.00;;;;;;10150258;28;20299;-63
2022/10/01 10:43:05;;;;;;;4.80;1.60;;;15.70;96.00;;;;;;10169944;28;20046;-65
2022/10/01 10:48:16;;;;;;;4.60;1.30;;;15.70;96.00;;;;;;10165957;28;20044;-65
2022/10/01 10:53:23;;;;;;;3.75;1.38;;;15.80;96.10;;;;;;10154219;28;20071;-62
2022/10/01 10:58:25;;;;;;;6.43;1.80;;;15.80;96.10;;;;;;10174858;28;20751;-66
2022/10/01 11:03:29;;;;;;;4.95;1.42;;;15.70;96.20;;;;;;10155597;28;20121;-62
2022/10/01 11:08:30;;;;;;;3.50;1.15;;;15.60;96.30;;;;;;10164681;28;20587;-62
2022/10/01 11:13:34;;;;;;;3.67;1.45;;;15.50;96.60;;;;;;10172214;28;20027;-63
2022/10/01 11:18:54;;;;;;;1.58;1.13;;;15.50;96.40;;;;;;10161798;28;20035;-70
2022/10/01 11:24:23;;;;;;;3.80;1.30;;;15.40;96.60;;;;;;10166801;28;20039;-63
2022/10/01 11:30:00;;;;;;;1.88;1.20;;;15.40;96.60;;;;;;10162889;28;20572;-61
2022/10/01 11:35:31;;;;;;;4.78;1.20;;;15.30;96.60;;;;;;10166916;28;20035;-64
2022/10/01 11:40:39;;;;;;;4.85;1.27;;;15.30;96.60;;;;;;10154745;28;20070;-63
2022/10/01 11:45:44;;;;;;;3.53;1.27;;;15.40;96.50;;;;;;10159658;28;20027;-63
2022/10/01 11:50:48;;;;;;;2.83;1.23;;;15.40;96.50;;;;;;10163871;28;20045;-63
2022/10/01 12:02:27;;;;;;;2.92;1.13;;;15.60;96.50;;;;;;10166514;28;20353;-67
2022/10/01 12:07:55;;;;;;;3.33;1.50;;;15.60;96.50;;;;;;10173926;28;20145;-64
2022/10/01 12:13:21;;;;;;;4.13;1.10;;;15.70;96.40;;;;;;10173068;28;20455;-63
2022/10/01 12:18:29;;;;;;;2.78;1.00;;;15.70;96.40;;;;;;10164610;28;20054;-66
2022/10/01 12:23:47;;;;;;;2.75;1.08;;;15.60;96.40;;;;;;10171544;28;20054;-65
2022/10/01 12:29:13;;;;;;;2.95;1.17;;;15.60;96.60;;;;;;10167221;28;20147;-63
2022/10/01 12:34:23;;;;;;;4.65;1.30;;;15.70;96.60;;;;;;10153165;28;20439;-63
2022/10/01 12:39:37;;;;;;;3.40;1.17;;;15.70;96.50;;;;;;10167697;28;20054;-67
2022/10/01 12:44:55;;;;;;;6.57;1.60;;;15.70;97.10;;;;;;10164482;28;20028;-65
2022/10/01 12:50:13;;;;;;;11.10;3.17;;;15.80;97.50;;;;;;10166930;28;20042;-68
2022/10/01 12:55:13;;;;;;;7.43;1.30;;;16.00;97.90;;;;;;10167589;28;21048;-69
2022/10/01 13:00:23;;;;;;;7.95;1.48;;;16.10;97.30;;;;;;10173399;28;20047;-64
2022/10/01 13:05:33;;;;;;;8.52;1.10;;;16.10;97.40;;;;;;10173968;28;20309;-62
2022/10/01 13:11:02;;;;;;;6.63;1.30;;;15.90;97.50;;;;;;10181506;28;20570;-65
2022/10/01 13:16:15;;;;;;;8.40;1.60;;;15.80;97.70;;;;;;10170735;28;20027;-67
2022/10/01 13:21:34;;;;;;;9.65;1.70;;;16.00;97.70;;;;;;10176688;28;20036;-67
2022/10/01 13:26:54;;;;;;;5.65;1.38;;;16.20;97.70;;;;;;10165802;28;20445;-65
2022/10/01 13:32:00;;;;;;;5.13;1.73;;;16.50;97.30;;;;;;10176399;28;20485;-71
2022/10/01 13:37:17;;;;;;;7.38;1.27;;;16.70;96.80;;;;;;10159535;28;20047;-66
2022/10/01 13:42:35;;;;;;;8.00;1.40;;;16.80;96.90;;;;;;10164634;28;20040;-65
2022/10/01 13:47:39;;;;;;;6.38;1.73;;;16.70;96.90;;;;;;10169733;28;20031;-67
2022/10/01 13:52:40;;;;;;;5.53;1.40;;;16.60;96.90;;;;;;10178521;28;20602;-66
2022/10/01 13:57:41;;;;;;;7.65;2.30;;;16.60;96.90;;;;;;10179682;28;20044;-66
2022/10/01 14:02:56;;;;;;;11.60;1.98;;;16.70;96.90;;;;;;10187738;28;20798;-66
2022/10/01 14:08:14;;;;;;;5.40;1.15;;;16.70;96.80;;;;;;10188961;28;20028;-70
2022/10/01 14:18:41;;;;;;;8.20;1.40;;;16.90;96.60;;;;;;10168681;28;20042;-73
2022/10/01 14:23:53;;;;;;;7.07;1.90;;;16.90;96.40;;;;;;10166906;28;20031;-64
2022/10/01 14:29:38;;;;;;;8.32;1.52;;;17.00;96.40;;;;;;10172563;28;20074;-64
2022/10/01 14:35:22;;;;;;;9.23;2.30;;;17.10;96.40;;;;;;10163773;28;20055;-64
2022/10/01 14:40:23;;;;;;;6.13;1.10;;;17.10;96.50;;;;;;10169433;28;20046;-64
2022/10/01 14:45:24;;;;;;;4.22;1.25;;;17.10;96.50;;;;;;10170718;28;20035;-64
2022/10/01 14:50:26;;;;;;;6.22;1.50;;;17.10;96.40;;;;;;10160776;28;20038;-71
2022/10/01 14:55:28;;;;;;;6.22;1.42;;;17.00;96.40;;;;;;10155569;28;20035;-62
2022/10/01 15:00:31;;;;;;;7.45;1.40;;;16.90;96.70;;;;;;10152936;28;20181;-62
2022/10/01 15:05:34;;;;;;;7.35;1.23;;;17.00;96.50;;;;;;10145658;28;20203;-62
2022/10/01 15:10:35;;;;;;;5.82;1.58;;;17.00;96.50;;;;;;10133270;28;20117;-66
2022/10/01 15:15:40;;;;;;;3.90;1.25;;;17.00;96.60;;;;;;10141472;28;20031;-64
2022/10/01 15:21:00;;;;;;;7.40;1.75;;;16.90;96.60;;;;;;10155612;28;20349;-63
2022/10/01 15:26:03;;;;;;;10.88;2.20;;;16.90;96.60;;;;;;10162124;28;20675;-65
2022/10/01 15:31:05;;;;;;;5.78;1.73;;;16.80;96.70;;;;;;10158694;28;20465;-65
2022/10/01 15:36:16;;;;;;;6.50;2.00;;;16.70;96.70;;;;;;10170877;28;20057;-64
2022/10/01 15:41:22;;;;;;;5.75;1.70;;;16.70;96.70;;;;;;10182514;28;20203;-64
2022/10/01 15:46:24;;;;;;;5.10;1.42;;;16.70;96.70;;;;;;10165455;28;20350;-62
2022/10/01 15:51:27;;;;;;;6.63;1.50;;;16.70;96.70;;;;;;10163611;28;20251;-64
2022/10/01 15:56:29;;;;;;;4.40;1.23;;;16.60;96.80;;;;;;10172908;28;20358;-65
2022/10/01 16:01:38;;;;;;;6.07;1.55;;;16.60;96.80;;;;;;10149889;28;20051;-65
2022/10/01 16:06:46;;;;;;;3.13;1.20;;;16.60;96.80;;;;;;10168317;28;20653;-66
2022/10/01 16:11:55;;;;;;;7.03;1.40;;;16.50;96.80;;;;;;10168325;28;20149;-65
2022/10/01 16:17:15;;;;;;;7.57;1.67;;;16.50;96.80;;;;;;10169653;28;20519;-66
2022/10/01 16:22:30;;;;;;;5.95;1.20;;;16.50;96.80;;;;;;10162525;28;20066;-64
2022/10/01 16:27:59;;;;;;;6.90;1.42;;;16.80;96.90;;;;;;10175532;28;20031;-65
2022/10/01 16:33:04;;;;;;;6.40;1.85;;;16.40;96.90;;;;;;10160683;28;20066;-70
2022/10/01 16:38:07;;;;;;;6.30;1.60;;;16.40;97.00;;;;;;10169834;28;20598;-64
2022/10/01 16:43:23;;;;;;;4.60;1.70;;;16.40;96.90;;;;;;10169882;28;20031;-65
2022/10/01 16:48:24;;;;;;;5.07;1.60;;;16.30;97.00;;;;;;10165914;28;20363;-66
2022/10/01 16:53:26;;;;;;;4.43;1.58;;;16.30;97.00;;;;;;10178288;28;20126;-70
2022/10/01 16:58:26;;;;;;;4.68;2.08;;;16.30;97.10;;;;;;10160636;28;20051;-70
2022/10/01 17:03:27;;;;;;;6.95;1.60;;;16.30;97.10;;;;;;10161749;28;20069;-70
2022/10/01 17:08:28;;;;;;;4.47;1.38;;;16.30;97.10;;;;;;10180838;28;20043;-60
2022/10/01 17:13:32;;;;;;;7.25;2.13;;;16.20;97.10;;;;;;10166906;28;20582;-66
2022/10/01 17:18:32;;;;;;;6.72;2.10;;;16.20;97.20;;;;;;10172964;28;20679;-66
2022/10/01 17:23:34;;;;;;;6.50;1.50;;;16.20;97.30;;;;;;10169364;28;20141;-65
2022/10/01 17:28:38;;;;;;;7.50;1.80;;;16.20;97.30;;;;;;10152991;28;20223;-67
2022/10/01 17:33:44;;;;;;;5.10;1.77;;;16.20;97.30;;;;;;10181272;28;20066;-65
2022/10/01 17:38:45;;;;;;;3.42;1.60;;;16.10;97.30;;;;;;10161037;28;20039;-65
2022/10/01 17:43:46;;;;;;;8.07;1.60;;;16.10;97.40;;;;;;10241133;28;20040;-66
2022/10/01 17:48:48;;;;;;;5.68;2.00;;;16.10;97.40;;;;;;10231246;28;20042;-66
2022/10/01 17:53:49;;;;;;;4.15;1.70;;;16.10;97.40;;;;;;10223393;28;20054;-65
2022/10/01 17:58:52;;;;;;;6.80;2.05;;;16.00;97.40;;;;;;10220837;28;20037;-66
2022/10/01 18:03:54;;;;;;;6.35;1.70;;;16.00;97.40;;;;;;10224891;28;20592;-66
2022/10/01 18:08:55;;;;;;;5.22;2.00;;;15.90;97.40;;;;;;10225936;28;20035;-66
2022/10/01 18:13:56;;;;;;;6.03;1.73;;;15.90;97.40;;;;;;10222381;28;20327;-66
2022/10/01 18:18:58;;;;;;;3.95;1.83;;;15.90;97.60;;;;;;10221661;28;20100;-66
2022/10/01 18:24:00;;;;;;;5.22;2.20;;;15.90;97.40;;;;;;10214870;28;20027;-66
2022/10/01 18:29:01;;;;;;;5.97;2.40;;;15.80;97.30;;;;;;10216860;28;20154;-66
2022/10/01 18:34:10;;;;;;;5.22;1.80;;;15.80;97.40;;;;;;10221092;28;20114;-65
2022/10/01 18:39:20;;;;;;;5.40;2.17;;;15.80;97.30;;;;;;10226716;28;20451;-65
2022/10/01 18:44:22;;;;;;;7.93;2.17;;;15.70;97.30;;;;;;10211264;28;20796;-65
2022/10/01 18:49:44;;;;;;;6.60;2.28;;;15.50;97.30;;;;;;10218119;28;20034;-65
2022/10/01 18:55:29;;;;;;;4.28;1.55;;;15.70;97.30;;;;;;10225297;28;20059;-65
2022/10/01 19:00:46;;;;;;;5.72;2.03;;;15.70;97.30;;;;;;10201334;28;20435;-66
2022/10/01 19:05:52;;;;;;;5.82;2.10;;;15.60;97.30;;;;;;10227906;28;20496;-66
2022/10/01 19:11:13;;;;;;;7.80;3.40;;;15.60;97.40;;;;;;10236443;28;20066;-66
2022/10/01 19:16:37;;;;;;;9.77;2.10;;;15.60;97.30;;;;;;10227124;28;20046;-65
2022/10/01 19:22:15;;;;;;;7.15;1.65;;;15.60;97.30;;;;;;10231476;28;20118;-66
2022/10/01 19:27:40;;;;;;;5.18;1.80;;;15.50;97.30;;;;;;10194487;28;20045;-66
2022/10/01 19:33:03;;;;;;;6.60;1.77;;;15.50;97.30;;;;;;10219970;28;20036;-66
2022/10/01 19:38:32;;;;;;;4.72;1.27;;;15.40;97.30;;;;;;10218342;28;20563;-66
2022/10/01 19:43:42;;;;;;;4.63;1.30;;;15.40;97.30;;;;;;10231481;28;20121;-67
2022/10/01 19:48:59;;;;;;;4.40;1.48;;;15.40;97.30;;;;;;10213246;28;20039;-66
2022/10/01 19:54:01;;;;;;;5.35;1.63;;;15.40;97.30;;;;;;10215320;28;20469;-66
2022/10/01 19:59:13;;;;;;;5.45;1.33;;;15.40;97.30;;;;;;10212369;28;20199;-66
2022/10/01 20:04:39;;;;;;;3.25;1.60;;;15.40;97.30;;;;;;10217323;28;20439;-66
2022/10/01 20:09:44;;;;;;;3.40;1.30;;;15.30;97.30;;;;;;10215110;28;20023;-66
2022/10/01 20:15:21;;;;;;;4.05;1.45;;;15.30;97.30;;;;;;10216624;28;20090;-66
2022/10/01 20:20:55;;;;;;;5.53;1.33;;;15.30;97.20;;;;;;10211875;28;20237;-66
2022/10/01 20:26:10;;;;;;;2.08;1.20;;;15.30;97.10;;;;;;10192840;28;20051;-67
2022/10/01 20:31:17;;;;;;;2.88;1.13;;;15.20;97.20;;;;;;10228766;28;20130;-66
2022/10/01 20:36:27;;;;;;;2.78;0.90;;;15.20;97.20;;;;;;10232884;28;20015;-66
2022/10/01 20:41:32;;;;;;;3.30;1.30;;;15.20;97.10;;;;;;10238456;28;20098;-66
2022/10/01 20:46:42;;;;;;;2.47;1.15;;;15.20;97.10;;;;;;10235472;28;20038;-66
2022/10/01 20:51:54;;;;;;;2.40;1.13;;;15.20;97.10;;;;;;10234688;28;20047;-65
2022/10/01 20:56:57;;;;;;;3.25;1.30;;;15.10;97.10;;;;;;10242949;28;20075;-66
2022/10/01 21:02:03;;;;;;;3.33;1.00;;;15.20;97.10;;;;;;10240219;28;20747;-66
2022/10/01 21:07:26;;;;;;;3.53;1.27;;;15.10;97.10;;;;;;10235817;28;20080;-67
2022/10/01 21:12:34;;;;;;;2.83;1.23;;;15.10;97.00;;;;;;10210890;28;20130;-66
2022/10/01 21:17:55;;;;;;;4.68;0.98;;;15.10;97.00;;;;;;10228294;28;20127;-66
2022/10/01 21:23:25;;;;;;;3.53;1.20;;;15.10;97.00;;;;;;10230968;28;20537;-66
2022/10/01 21:28:47;;;;;;;4.03;1.27;;;15.00;97.00;;;;;;10231967;28;20027;-66
2022/10/01 21:34:10;;;;;;;2.47;1.10;;;15.00;97.00;;;;;;10229203;28;20503;-66
2022/10/01 21:39:29;;;;;;;6.00;1.30;;;15.00;97.00;;;;;;10232222;28;20050;-66
2022/10/01 21:44:48;;;;;;;3.55;1.20;;;15.00;97.00;;;;;;10232780;28;20090;-65
2022/10/01 21:49:51;;;;;;;3.92;1.48;;;15.00;97.10;;;;;;10228165;28;20043;-65
2022/10/01 21:55:30;;;;;;;5.70;1.20;;;15.00;97.00;;;;;;10234054;28;20046;-65
2022/10/01 22:00:31;;;;;;;2.90;1.15;;;15.00;97.00;;;;;;10227462;28;20039;-65
2022/10/01 22:05:49;;;;;;;4.68;1.42;;;14.90;97.00;;;;;;10238365;28;20078;-65
2022/10/01 22:10:58;;;;;;;;;;;14.90;97.00;;;;;;10231963;28;20046;-66
2022/10/01 22:16:06;;;;;;;5.07;1.25;;;14.90;97.00;;;;;;10243834;28;19918;-65
2022/10/01 22:21:23;;;;;;;2.90;1.40;;;14.90;97.00;;;;;;10236269;28;20039;-66
2022/10/01 22:26:28;;;;;;;4.18;1.30;;;14.90;97.00;;;;;;10248544;28;20110;-65
2022/10/01 22:31:33;;;;;;;2.55;1.23;;;14.80;97.00;;;;;;10249379;28;20154;-66
2022/10/01 22:36:54;;;;;;;2.60;1.08;;;14.80;97.00;;;;;;10247401;28;20055;-66
2022/10/01 22:42:16;;;;;;;3.72;1.42;;;14.80;97.00;;;;;;10244595;28;20043;-65
2022/10/01 22:47:29;;;;;;;4.30;1.65;;;14.80;97.00;;;;;;10250818;28;20046;-65
2022/10/01 22:52:39;;;;;;;3.30;1.30;;;14.80;97.00;;;;;;10242117;28;20519;-65
2022/10/01 22:57:58;;;;;;;4.05;1.55;;;14.80;97.10;;;;;;10241211;28;20122;-66
2022/10/01 23:02:58;;;;;;;3.78;1.60;;;14.80;97.00;;;;;;10239998;28;20031;-65
2022/10/01 23:08:05;;;;;;;10.07;1.88;;;14.80;97.10;;;;;;10242114;28;20057;-66
2022/10/01 23:13:28;;;;;;;6.10;1.73;;;14.70;97.00;;;;;;10243796;28;20110;-65
2022/10/01 23:19:00;;;;;;;3.55;1.70;;;14.70;97.00;;;;;;10250474;28;20036;-65
2022/10/01 23:24:12;;;;;;;4.97;1.45;;;14.70;97.00;;;;;;10241341;28;20086;-65
2022/10/01 23:29:57;;;;;;;2.67;1.25;;;14.70;97.00;;;;;;10245262;28;20099;-65
2022/10/01 23:35:13;;;;;;;6.65;1.70;;;14.70;97.00;;;;;;10242663;28;20710;-65
2022/10/01 23:40:19;;;;;;;5.00;1.45;;;14.70;97.00;;;;;;10244783;28;20043;-66
2022/10/01 23:45:38;;;;;;;4.00;1.55;;;14.70;97.00;;;;;;10240638;28;20031;-65
2022/10/01 23:51:01;;;;;;;6.65;1.55;;;14.70;97.00;;;;;;10230007;28;20031;-65
2022/10/01 23:56:49;;;;;;;5.22;1.83;;;14.60;97.00;;;;;;10239761;28;20031;-65
